sensor_id;sensor_type;location;lat;lon;timestamp;P1;durP1;ratioP1;P2;durP2;ratioP2
11819;SDS011;5967;48.944;9.240;2022-11-20T00:00:45;8.00;;;5.43;;
11819;SDS011;5967;48.944;9.240;2022-11-20T00:03:10;8.63;;;6.27;;
11819;SDS011;5967;48.944;9.240;2022-11-20T00:05:37;14.30;;;8.90;;
11819;SDS011;5967;48.944;9.240;2022-11-20T00:08:02;18.63;;;11.93;;
11819;SDS011;5967;48.944;9.240;2022-11-20T00:10:28;16.70;;;12.13;;
11819;SDS011;5967;48.944;9.240;2022-11-20T00:12:54;12.33;;;9.13;;
11819;SDS011;5967;48.944;9.240;2022-11-20T00:15:19;16.10;;;10.00;;
11819;SDS011;5967;48.944;9.240;2022-11-20T00:17:45;13.53;;;8.93;;
11819;SDS011;5967;48.944;9.240;2022-11-20T00:20:11;14.03;;;8.73;;
11819;SDS011;5967;48.944;9.240;2022-11-20T00:22:37;13.30;;;8.27;;
11819;SDS011;5967;48.944;9.240;2022-11-20T00:25:02;11.00;;;7.80;;
11819;SDS011;5967;48.944;9.240;2022-11-20T00:27:28;14.57;;;8.17;;
11819;SDS011;5967;48.944;9.240;2022-11-20T00:29:53;13.73;;;8.33;;
11819;SDS011;5967;48.944;9.240;2022-11-20T00:32:19;16.27;;;8.17;;
11819;SDS011;5967;48.944;9.240;2022-11-20T00:34:45;13.67;;;8.67;;
11819;SDS011;5967;48.944;9.240;2022-11-20T00:37:11;11.40;;;7.60;;
11819;SDS011;5967;48.944;9.240;2022-11-20T00:39:36;10.87;;;7.30;;
11819;SDS011;5967;48.944;9.240;2022-11-20T00:42:02;14.07;;;7.03;;
11819;SDS011;5967;48.944;9.240;2022-11-20T00:44:27;9.30;;;7.20;;
11819;SDS011;5967;48.944;9.240;2022-11-20T00:46:53;10.50;;;7.10;;
11819;SDS011;5967;48.944;9.240;2022-11-20T00:49:18;12.40;;;7.83;;
11819;SDS011;5967;48.944;9.240;2022-11-20T00:51:44;9.27;;;6.93;;
11819;SDS011;5967;48.944;9.240;2022-11-20T00:54:10;11.60;;;7.40;;
11819;SDS011;5967;48.944;9.240;2022-11-20T00:56:36;9.87;;;7.20;;
11819;SDS011;5967;48.944;9.240;2022-11-20T00:59:02;10.63;;;7.43;;
11819;SDS011;5967;48.944;9.240;2022-11-20T01:01:28;10.50;;;6.83;;
11819;SDS011;5967;48.944;9.240;2022-11-20T01:03:57;11.17;;;6.93;;
11819;SDS011;5967;48.944;9.240;2022-11-20T01:08:52;12.33;;;7.33;;
11819;SDS011;5967;48.944;9.240;2022-11-20T01:11:20;11.60;;;7.30;;
11819;SDS011;5967;48.944;9.240;2022-11-20T01:13:55;13.90;;;7.63;;
11819;SDS011;5967;48.944;9.240;2022-11-20T01:16:24;13.03;;;7.40;;
11819;SDS011;5967;48.944;9.240;2022-11-20T01:18:55;12.43;;;7.40;;
11819;SDS011;5967;48.944;9.240;2022-11-20T01:21:24;11.50;;;8.00;;
11819;SDS011;5967;48.944;9.240;2022-11-20T01:23:52;10.63;;;7.30;;
11819;SDS011;5967;48.944;9.240;2022-11-20T01:26:20;12.33;;;7.57;;
11819;SDS011;5967;48.944;9.240;2022-11-20T01:28:47;13.50;;;8.33;;
11819;SDS011;5967;48.944;9.240;2022-11-20T01:31:14;14.23;;;8.10;;
11819;SDS011;5967;48.944;9.240;2022-11-20T01:33:47;18.93;;;9.73;;
11819;SDS011;5967;48.944;9.240;2022-11-20T01:36:15;12.53;;;8.67;;
11819;SDS011;5967;48.944;9.240;2022-11-20T01:38:42;18.17;;;9.70;;
11819;SDS011;5967;48.944;9.240;2022-11-20T01:41:09;18.03;;;9.70;;
11819;SDS011;5967;48.944;9.240;2022-11-20T01:43:56;17.33;;;9.20;;
11819;SDS011;5967;48.944;9.240;2022-11-20T01:46:22;13.53;;;9.00;;
11819;SDS011;5967;48.944;9.240;2022-11-20T01:48:49;16.10;;;9.43;;
11819;SDS011;5967;48.944;9.240;2022-11-20T01:51:25;14.43;;;8.60;;
11819;SDS011;5967;48.944;9.240;2022-11-20T01:53:57;14.70;;;8.50;;
11819;SDS011;5967;48.944;9.240;2022-11-20T01:56:28;17.13;;;9.30;;
11819;SDS011;5967;48.944;9.240;2022-11-20T01:59:00;14.50;;;8.33;;
11819;SDS011;5967;48.944;9.240;2022-11-20T02:01:28;15.07;;;8.87;;
11819;SDS011;5967;48.944;9.240;2022-11-20T02:03:54;14.67;;;8.70;;
11819;SDS011;5967;48.944;9.240;2022-11-20T02:06:25;16.77;;;9.87;;
11819;SDS011;5967;48.944;9.240;2022-11-20T02:08:54;13.83;;;9.03;;
11819;SDS011;5967;48.944;9.240;2022-11-20T02:11:20;13.87;;;9.17;;
11819;SDS011;5967;48.944;9.240;2022-11-20T02:13:46;11.43;;;8.17;;
11819;SDS011;5967;48.944;9.240;2022-11-20T02:18:47;12.40;;;8.07;;
11819;SDS011;5967;48.944;9.240;2022-11-20T02:21:15;11.07;;;7.83;;
11819;SDS011;5967;48.944;9.240;2022-11-20T02:24:09;10.20;;;7.80;;
11819;SDS011;5967;48.944;9.240;2022-11-20T02:26:50;11.00;;;7.90;;
11819;SDS011;5967;48.944;9.240;2022-11-20T02:30:02;12.17;;;7.20;;
11819;SDS011;5967;48.944;9.240;2022-11-20T02:34:50;11.10;;;7.60;;
11819;SDS011;5967;48.944;9.240;2022-11-20T02:37:16;10.00;;;7.23;;
11819;SDS011;5967;48.944;9.240;2022-11-20T02:39:43;9.10;;;6.93;;
11819;SDS011;5967;48.944;9.240;2022-11-20T02:42:10;9.73;;;7.03;;
11819;SDS011;5967;48.944;9.240;2022-11-20T02:44:36;10.20;;;7.03;;
11819;SDS011;5967;48.944;9.240;2022-11-20T02:47:02;10.30;;;7.00;;
11819;SDS011;5967;48.944;9.240;2022-11-20T02:49:28;11.57;;;6.77;;
11819;SDS011;5967;48.944;9.240;2022-11-20T02:51:53;11.80;;;7.87;;
11819;SDS011;5967;48.944;9.240;2022-11-20T02:54:19;14.87;;;9.00;;
11819;SDS011;5967;48.944;9.240;2022-11-20T02:56:44;13.10;;;8.00;;
11819;SDS011;5967;48.944;9.240;2022-11-20T02:59:10;20.47;;;9.10;;
11819;SDS011;5967;48.944;9.240;2022-11-20T03:01:35;18.43;;;10.07;;
11819;SDS011;5967;48.944;9.240;2022-11-20T03:04:01;15.03;;;8.57;;
11819;SDS011;5967;48.944;9.240;2022-11-20T03:06:27;16.00;;;9.60;;
11819;SDS011;5967;48.944;9.240;2022-11-20T03:08:53;12.63;;;7.73;;
11819;SDS011;5967;48.944;9.240;2022-11-20T03:11:19;11.10;;;7.73;;
11819;SDS011;5967;48.944;9.240;2022-11-20T03:13:45;10.90;;;7.37;;
11819;SDS011;5967;48.944;9.240;2022-11-20T03:16:12;10.67;;;7.20;;
11819;SDS011;5967;48.944;9.240;2022-11-20T03:18:42;10.10;;;7.10;;
11819;SDS011;5967;48.944;9.240;2022-11-20T03:21:08;9.57;;;7.07;;
11819;SDS011;5967;48.944;9.240;2022-11-20T03:23:35;10.57;;;7.40;;
11819;SDS011;5967;48.944;9.240;2022-11-20T03:26:08;12.27;;;6.90;;
11819;SDS011;5967;48.944;9.240;2022-11-20T03:28:35;9.83;;;7.03;;
11819;SDS011;5967;48.944;9.240;2022-11-20T03:31:08;10.17;;;6.53;;
11819;SDS011;5967;48.944;9.240;2022-11-20T03:33:35;8.60;;;6.83;;
11819;SDS011;5967;48.944;9.240;2022-11-20T03:36:05;9.83;;;6.27;;
11819;SDS011;5967;48.944;9.240;2022-11-20T03:38:32;6.87;;;5.20;;
11819;SDS011;5967;48.944;9.240;2022-11-20T03:40:59;6.53;;;4.63;;
11819;SDS011;5967;48.944;9.240;2022-11-20T03:43:28;9.73;;;5.00;;
11819;SDS011;5967;48.944;9.240;2022-11-20T03:45:54;8.20;;;4.37;;
11819;SDS011;5967;48.944;9.240;2022-11-20T03:48:19;5.37;;;4.17;;
11819;SDS011;5967;48.944;9.240;2022-11-20T03:50:45;6.17;;;3.87;;
11819;SDS011;5967;48.944;9.240;2022-11-20T03:53:12;5.03;;;3.90;;
11819;SDS011;5967;48.944;9.240;2022-11-20T03:55:38;5.70;;;3.77;;
11819;SDS011;5967;48.944;9.240;2022-11-20T03:58:04;5.30;;;3.27;;
11819;SDS011;5967;48.944;9.240;2022-11-20T04:00:29;4.60;;;3.57;;
11819;SDS011;5967;48.944;9.240;2022-11-20T04:02:58;5.57;;;3.13;;
11819;SDS011;5967;48.944;9.240;2022-11-20T04:05:25;4.70;;;3.10;;
11819;SDS011;5967;48.944;9.240;2022-11-20T04:07:50;5.13;;;2.77;;
11819;SDS011;5967;48.944;9.240;2022-11-20T04:10:16;4.80;;;3.00;;
11819;SDS011;5967;48.944;9.240;2022-11-20T04:12:42;4.00;;;3.03;;
11819;SDS011;5967;48.944;9.240;2022-11-20T04:15:07;3.07;;;2.57;;
11819;SDS011;5967;48.944;9.240;2022-11-20T04:17:33;4.23;;;2.43;;
11819;SDS011;5967;48.944;9.240;2022-11-20T04:19:59;2.70;;;2.20;;
11819;SDS011;5967;48.944;9.240;2022-11-20T04:22:25;4.57;;;2.60;;
11819;SDS011;5967;48.944;9.240;2022-11-20T04:24:50;2.90;;;2.27;;
11819;SDS011;5967;48.944;9.240;2022-11-20T04:27:16;2.33;;;2.00;;
11819;SDS011;5967;48.944;9.240;2022-11-20T04:29:41;3.47;;;2.43;;
11819;SDS011;5967;48.944;9.240;2022-11-20T04:32:07;4.20;;;2.53;;
11819;SDS011;5967;48.944;9.240;2022-11-20T04:34:33;4.23;;;2.23;;
11819;SDS011;5967;48.944;9.240;2022-11-20T04:36:58;3.60;;;1.73;;
11819;SDS011;5967;48.944;9.240;2022-11-20T04:39:24;2.77;;;2.40;;
11819;SDS011;5967;48.944;9.240;2022-11-20T04:41:49;5.13;;;2.70;;
11819;SDS011;5967;48.944;9.240;2022-11-20T04:44:35;3.20;;;2.13;;
11819;SDS011;5967;48.944;9.240;2022-11-20T04:47:01;4.30;;;2.33;;
11819;SDS011;5967;48.944;9.240;2022-11-20T04:49:26;2.77;;;2.40;;
11819;SDS011;5967;48.944;9.240;2022-11-20T04:51:55;4.50;;;2.60;;
11819;SDS011;5967;48.944;9.240;2022-11-20T04:54:20;3.67;;;2.17;;
11819;SDS011;5967;48.944;9.240;2022-11-20T04:56:49;2.30;;;1.97;;
11819;SDS011;5967;48.944;9.240;2022-11-20T04:59:15;3.33;;;2.23;;
11819;SDS011;5967;48.944;9.240;2022-11-20T05:01:41;3.30;;;2.17;;
11819;SDS011;5967;48.944;9.240;2022-11-20T05:04:07;3.17;;;2.27;;
11819;SDS011;5967;48.944;9.240;2022-11-20T05:06:33;3.67;;;2.37;;
11819;SDS011;5967;48.944;9.240;2022-11-20T05:08:58;3.67;;;2.57;;
11819;SDS011;5967;48.944;9.240;2022-11-20T05:11:25;2.73;;;2.30;;
11819;SDS011;5967;48.944;9.240;2022-11-20T05:13:53;4.70;;;2.00;;
11819;SDS011;5967;48.944;9.240;2022-11-20T05:16:23;3.30;;;2.30;;
11819;SDS011;5967;48.944;9.240;2022-11-20T05:18:49;3.60;;;2.20;;
11819;SDS011;5967;48.944;9.240;2022-11-20T05:21:16;2.63;;;2.20;;
11819;SDS011;5967;48.944;9.240;2022-11-20T05:23:43;3.93;;;2.73;;
11819;SDS011;5967;48.944;9.240;2022-11-20T05:26:14;3.50;;;2.27;;
11819;SDS011;5967;48.944;9.240;2022-11-20T05:28:41;4.67;;;2.60;;
11819;SDS011;5967;48.944;9.240;2022-11-20T05:31:08;3.03;;;2.40;;
11819;SDS011;5967;48.944;9.240;2022-11-20T05:33:39;3.30;;;2.23;;
11819;SDS011;5967;48.944;9.240;2022-11-20T05:36:07;4.77;;;2.47;;
11819;SDS011;5967;48.944;9.240;2022-11-20T05:38:34;4.00;;;2.37;;
11819;SDS011;5967;48.944;9.240;2022-11-20T05:41:06;2.50;;;2.30;;
11819;SDS011;5967;48.944;9.240;2022-11-20T05:43:34;5.53;;;2.73;;
11819;SDS011;5967;48.944;9.240;2022-11-20T05:46:00;3.50;;;2.80;;
11819;SDS011;5967;48.944;9.240;2022-11-20T05:48:26;5.10;;;2.77;;
11819;SDS011;5967;48.944;9.240;2022-11-20T05:50:52;3.10;;;2.50;;
11819;SDS011;5967;48.944;9.240;2022-11-20T05:53:17;3.97;;;2.90;;
11819;SDS011;5967;48.944;9.240;2022-11-20T05:55:43;4.57;;;2.70;;
11819;SDS011;5967;48.944;9.240;2022-11-20T05:58:09;4.90;;;2.57;;
11819;SDS011;5967;48.944;9.240;2022-11-20T06:00:34;3.20;;;2.40;;
11819;SDS011;5967;48.944;9.240;2022-11-20T06:03:00;5.03;;;3.10;;
11819;SDS011;5967;48.944;9.240;2022-11-20T06:05:26;4.07;;;2.60;;
11819;SDS011;5967;48.944;9.240;2022-11-20T06:07:51;3.93;;;2.63;;
11819;SDS011;5967;48.944;9.240;2022-11-20T06:10:17;4.63;;;2.60;;
11819;SDS011;5967;48.944;9.240;2022-11-20T06:12:43;10.47;;;5.53;;
11819;SDS011;5967;48.944;9.240;2022-11-20T06:15:08;5.93;;;4.17;;
11819;SDS011;5967;48.944;9.240;2022-11-20T06:17:34;7.77;;;3.67;;
11819;SDS011;5967;48.944;9.240;2022-11-20T06:20:00;6.13;;;2.43;;
11819;SDS011;5967;48.944;9.240;2022-11-20T06:22:26;3.60;;;2.30;;
11819;SDS011;5967;48.944;9.240;2022-11-20T06:24:51;5.00;;;2.70;;
11819;SDS011;5967;48.944;9.240;2022-11-20T06:27:17;3.73;;;2.27;;
11819;SDS011;5967;48.944;9.240;2022-11-20T06:29:42;3.60;;;2.67;;
11819;SDS011;5967;48.944;9.240;2022-11-20T06:32:08;2.60;;;2.27;;
11819;SDS011;5967;48.944;9.240;2022-11-20T06:34:34;3.73;;;2.30;;
11819;SDS011;5967;48.944;9.240;2022-11-20T06:36:59;4.67;;;3.07;;
11819;SDS011;5967;48.944;9.240;2022-11-20T06:39:25;3.80;;;2.77;;
11819;SDS011;5967;48.944;9.240;2022-11-20T06:41:51;3.25;;;2.70;;
11819;SDS011;5967;48.944;9.240;2022-11-20T06:44:16;6.33;;;3.63;;
11819;SDS011;5967;48.944;9.240;2022-11-20T06:46:42;6.50;;;3.70;;
11819;SDS011;5967;48.944;9.240;2022-11-20T06:49:07;5.10;;;4.60;;
11819;SDS011;5967;48.944;9.240;2022-11-20T06:51:33;6.60;;;5.90;;
11819;SDS011;5967;48.944;9.240;2022-11-20T06:53:58;7.10;;;5.03;;
11819;SDS011;5967;48.944;9.240;2022-11-20T06:56:25;3.50;;;3.20;;
11819;SDS011;5967;48.944;9.240;2022-11-20T06:58:51;3.03;;;2.67;;
11819;SDS011;5967;48.944;9.240;2022-11-20T07:01:17;3.30;;;2.77;;
11819;SDS011;5967;48.944;9.240;2022-11-20T07:03:42;4.20;;;2.73;;
11819;SDS011;5967;48.944;9.240;2022-11-20T07:06:08;4.90;;;2.40;;
11819;SDS011;5967;48.944;9.240;2022-11-20T07:08:34;3.33;;;2.43;;
11819;SDS011;5967;48.944;9.240;2022-11-20T07:11:00;3.57;;;2.30;;
11819;SDS011;5967;48.944;9.240;2022-11-20T07:13:28;3.40;;;2.50;;
11819;SDS011;5967;48.944;9.240;2022-11-20T07:15:54;3.43;;;2.50;;
11819;SDS011;5967;48.944;9.240;2022-11-20T07:18:23;3.87;;;2.40;;
11819;SDS011;5967;48.944;9.240;2022-11-20T07:20:49;5.23;;;2.70;;
11819;SDS011;5967;48.944;9.240;2022-11-20T07:23:14;2.73;;;2.40;;
11819;SDS011;5967;48.944;9.240;2022-11-20T07:25:40;2.77;;;2.03;;
11819;SDS011;5967;48.944;9.240;2022-11-20T07:28:06;3.10;;;2.17;;
11819;SDS011;5967;48.944;9.240;2022-11-20T07:30:31;3.23;;;2.17;;
11819;SDS011;5967;48.944;9.240;2022-11-20T07:32:57;3.73;;;2.00;;
11819;SDS011;5967;48.944;9.240;2022-11-20T07:35:23;3.37;;;2.10;;
11819;SDS011;5967;48.944;9.240;2022-11-20T07:37:49;2.60;;;2.00;;
11819;SDS011;5967;48.944;9.240;2022-11-20T07:40:15;5.13;;;2.83;;
11819;SDS011;5967;48.944;9.240;2022-11-20T07:42:48;4.03;;;2.23;;
11819;SDS011;5967;48.944;9.240;2022-11-20T07:45:18;3.77;;;2.10;;
11819;SDS011;5967;48.944;9.240;2022-11-20T07:47:44;4.47;;;1.93;;
11819;SDS011;5967;48.944;9.240;2022-11-20T07:50:10;4.17;;;2.30;;
11819;SDS011;5967;48.944;9.240;2022-11-20T07:52:36;5.20;;;2.40;;
11819;SDS011;5967;48.944;9.240;2022-11-20T07:55:02;2.90;;;2.27;;
11819;SDS011;5967;48.944;9.240;2022-11-20T07:57:27;2.60;;;2.17;;
11819;SDS011;5967;48.944;9.240;2022-11-20T07:59:53;4.33;;;2.57;;
11819;SDS011;5967;48.944;9.240;2022-11-20T08:02:19;3.70;;;2.77;;
11819;SDS011;5967;48.944;9.240;2022-11-20T08:04:44;2.57;;;2.13;;
11819;SDS011;5967;48.944;9.240;2022-11-20T08:07:10;2.60;;;2.27;;
11819;SDS011;5967;48.944;9.240;2022-11-20T08:09:35;4.27;;;2.47;;
11819;SDS011;5967;48.944;9.240;2022-11-20T08:12:01;2.23;;;1.90;;
11819;SDS011;5967;48.944;9.240;2022-11-20T08:14:45;4.63;;;2.37;;
11819;SDS011;5967;48.944;9.240;2022-11-20T08:17:10;3.37;;;2.33;;
11819;SDS011;5967;48.944;9.240;2022-11-20T08:19:37;2.90;;;2.60;;
11819;SDS011;5967;48.944;9.240;2022-11-20T08:22:02;2.77;;;2.23;;
11819;SDS011;5967;48.944;9.240;2022-11-20T08:24:28;2.57;;;2.00;;
11819;SDS011;5967;48.944;9.240;2022-11-20T08:26:53;3.60;;;2.20;;
11819;SDS011;5967;48.944;9.240;2022-11-20T08:29:21;2.10;;;1.80;;
11819;SDS011;5967;48.944;9.240;2022-11-20T08:31:47;2.77;;;2.00;;
11819;SDS011;5967;48.944;9.240;2022-11-20T08:34:13;3.33;;;2.30;;
11819;SDS011;5967;48.944;9.240;2022-11-20T08:36:38;3.13;;;2.10;;
11819;SDS011;5967;48.944;9.240;2022-11-20T08:39:04;4.33;;;2.10;;
11819;SDS011;5967;48.944;9.240;2022-11-20T08:41:30;2.53;;;1.90;;
11819;SDS011;5967;48.944;9.240;2022-11-20T08:44:02;2.00;;;1.80;;
11819;SDS011;5967;48.944;9.240;2022-11-20T08:46:38;4.23;;;2.03;;
11819;SDS011;5967;48.944;9.240;2022-11-20T08:49:06;2.13;;;1.87;;
11819;SDS011;5967;48.944;9.240;2022-11-20T08:51:34;2.47;;;1.80;;
11819;SDS011;5967;48.944;9.240;2022-11-20T08:54:00;2.80;;;2.23;;
11819;SDS011;5967;48.944;9.240;2022-11-20T08:56:25;2.63;;;2.20;;
11819;SDS011;5967;48.944;9.240;2022-11-20T08:58:51;2.40;;;1.80;;
11819;SDS011;5967;48.944;9.240;2022-11-20T09:01:17;2.93;;;2.40;;
11819;SDS011;5967;48.944;9.240;2022-11-20T09:03:44;2.83;;;2.13;;
11819;SDS011;5967;48.944;9.240;2022-11-20T09:06:09;3.03;;;2.40;;
11819;SDS011;5967;48.944;9.240;2022-11-20T09:08:35;2.90;;;2.07;;
11819;SDS011;5967;48.944;9.240;2022-11-20T09:11:03;4.77;;;2.70;;
11819;SDS011;5967;48.944;9.240;2022-11-20T09:13:30;3.50;;;2.30;;
11819;SDS011;5967;48.944;9.240;2022-11-20T09:15:58;6.37;;;2.80;;
11819;SDS011;5967;48.944;9.240;2022-11-20T09:18:26;3.60;;;2.50;;
11819;SDS011;5967;48.944;9.240;2022-11-20T09:20:57;3.40;;;1.97;;
11819;SDS011;5967;48.944;9.240;2022-11-20T09:23:26;3.67;;;1.97;;
11819;SDS011;5967;48.944;9.240;2022-11-20T09:25:55;1.77;;;1.50;;
11819;SDS011;5967;48.944;9.240;2022-11-20T09:28:24;3.13;;;1.80;;
11819;SDS011;5967;48.944;9.240;2022-11-20T09:30:50;3.00;;;2.33;;
11819;SDS011;5967;48.944;9.240;2022-11-20T09:33:16;2.50;;;2.07;;
11819;SDS011;5967;48.944;9.240;2022-11-20T09:35:42;4.07;;;1.80;;
11819;SDS011;5967;48.944;9.240;2022-11-20T09:38:09;2.67;;;1.77;;
11819;SDS011;5967;48.944;9.240;2022-11-20T09:41:02;3.60;;;2.27;;
11819;SDS011;5967;48.944;9.240;2022-11-20T09:46:13;1.93;;;1.50;;
11819;SDS011;5967;48.944;9.240;2022-11-20T09:51:55;2.47;;;1.40;;
11819;SDS011;5967;48.944;9.240;2022-11-20T09:54:22;3.03;;;1.40;;
11819;SDS011;5967;48.944;9.240;2022-11-20T09:57:05;1.40;;;1.30;;
11819;SDS011;5967;48.944;9.240;2022-11-20T09:59:43;2.10;;;1.60;;
11819;SDS011;5967;48.944;9.240;2022-11-20T10:04:53;3.10;;;1.80;;
11819;SDS011;5967;48.944;9.240;2022-11-20T10:07:52;2.07;;;1.60;;
11819;SDS011;5967;48.944;9.240;2022-11-20T10:21:29;2.80;;;2.00;;
11819;SDS011;5967;48.944;9.240;2022-11-20T10:29:33;4.03;;;2.10;;
11819;SDS011;5967;48.944;9.240;2022-11-20T10:32:01;3.40;;;1.90;;
11819;SDS011;5967;48.944;9.240;2022-11-20T10:34:34;3.10;;;1.77;;
11819;SDS011;5967;48.944;9.240;2022-11-20T10:37:27;2.70;;;1.90;;
11819;SDS011;5967;48.944;9.240;2022-11-20T10:43:12;1.60;;;1.50;;
11819;SDS011;5967;48.944;9.240;2022-11-20T10:48:22;4.57;;;2.87;;
11819;SDS011;5967;48.944;9.240;2022-11-20T10:50:54;3.30;;;2.17;;
11819;SDS011;5967;48.944;9.240;2022-11-20T10:56:32;1.20;;;1.10;;
11819;SDS011;5967;48.944;9.240;2022-11-20T11:02:20;4.60;;;3.30;;
11819;SDS011;5967;48.944;9.240;2022-11-20T11:04:50;3.90;;;2.37;;
11819;SDS011;5967;48.944;9.240;2022-11-20T11:07:20;2.23;;;1.80;;
11819;SDS011;5967;48.944;9.240;2022-11-20T11:09:56;2.30;;;1.60;;
11819;SDS011;5967;48.944;9.240;2022-11-20T11:12:24;4.60;;;1.90;;
11819;SDS011;5967;48.944;9.240;2022-11-20T11:14:55;2.70;;;2.00;;
11819;SDS011;5967;48.944;9.240;2022-11-20T11:22:30;3.83;;;2.40;;
11819;SDS011;5967;48.944;9.240;2022-11-20T11:24:58;5.40;;;3.37;;
11819;SDS011;5967;48.944;9.240;2022-11-20T11:27:24;4.17;;;3.07;;
11819;SDS011;5967;48.944;9.240;2022-11-20T11:29:50;3.40;;;2.60;;
11819;SDS011;5967;48.944;9.240;2022-11-20T11:32:38;4.40;;;2.30;;
11819;SDS011;5967;48.944;9.240;2022-11-20T11:35:04;10.87;;;4.80;;
11819;SDS011;5967;48.944;9.240;2022-11-20T11:37:35;8.23;;;4.57;;
11819;SDS011;5967;48.944;9.240;2022-11-20T11:40:03;16.00;;;8.80;;
11819;SDS011;5967;48.944;9.240;2022-11-20T11:42:31;16.03;;;11.33;;
11819;SDS011;5967;48.944;9.240;2022-11-20T11:44:57;10.47;;;5.80;;
11819;SDS011;5967;48.944;9.240;2022-11-20T11:58:27;4.90;;;1.67;;
11819;SDS011;5967;48.944;9.240;2022-11-20T12:03:35;4.60;;;1.70;;
11819;SDS011;5967;48.944;9.240;2022-11-20T12:06:15;3.60;;;1.53;;
11819;SDS011;5967;48.944;9.240;2022-11-20T12:08:49;2.27;;;1.50;;
11819;SDS011;5967;48.944;9.240;2022-11-20T12:11:21;2.57;;;1.50;;
11819;SDS011;5967;48.944;9.240;2022-11-20T12:14:23;2.17;;;1.80;;
11819;SDS011;5967;48.944;9.240;2022-11-20T12:16:55;2.93;;;1.60;;
11819;SDS011;5967;48.944;9.240;2022-11-20T12:19:22;2.53;;;1.37;;
11819;SDS011;5967;48.944;9.240;2022-11-20T12:22:14;5.07;;;1.57;;
11819;SDS011;5967;48.944;9.240;2022-11-20T12:24:55;3.47;;;1.30;;
11819;SDS011;5967;48.944;9.240;2022-11-20T12:30:00;1.77;;;1.27;;
11819;SDS011;5967;48.944;9.240;2022-11-20T12:36:06;4.90;;;1.37;;
11819;SDS011;5967;48.944;9.240;2022-11-20T12:44:16;4.77;;;1.67;;
11819;SDS011;5967;48.944;9.240;2022-11-20T12:50:15;4.53;;;1.40;;
11819;SDS011;5967;48.944;9.240;2022-11-20T12:53:11;3.43;;;1.40;;
11819;SDS011;5967;48.944;9.240;2022-11-20T12:58:45;3.43;;;1.57;;
11819;SDS011;5967;48.944;9.240;2022-11-20T13:01:39;7.30;;;5.07;;
11819;SDS011;5967;48.944;9.240;2022-11-20T13:07:09;9.00;;;2.77;;
11819;SDS011;5967;48.944;9.240;2022-11-20T13:09:40;4.10;;;1.60;;
11819;SDS011;5967;48.944;9.240;2022-11-20T13:12:27;1.47;;;0.90;;
11819;SDS011;5967;48.944;9.240;2022-11-20T13:18:00;3.70;;;1.37;;
11819;SDS011;5967;48.944;9.240;2022-11-20T13:20:27;1.73;;;1.00;;
11819;SDS011;5967;48.944;9.240;2022-11-20T13:22:56;1.47;;;1.10;;
11819;SDS011;5967;48.944;9.240;2022-11-20T13:25:29;2.47;;;1.30;;
11819;SDS011;5967;48.944;9.240;2022-11-20T13:28:00;2.67;;;1.10;;
11819;SDS011;5967;48.944;9.240;2022-11-20T13:30:35;4.20;;;1.17;;
11819;SDS011;5967;48.944;9.240;2022-11-20T13:33:23;1.73;;;1.10;;
11819;SDS011;5967;48.944;9.240;2022-11-20T13:35:55;3.03;;;1.00;;
11819;SDS011;5967;48.944;9.240;2022-11-20T13:38:23;2.70;;;0.90;;
11819;SDS011;5967;48.944;9.240;2022-11-20T13:40:53;3.03;;;1.10;;
11819;SDS011;5967;48.944;9.240;2022-11-20T13:43:42;2.30;;;1.20;;
11819;SDS011;5967;48.944;9.240;2022-11-20T13:46:09;2.67;;;1.20;;
11819;SDS011;5967;48.944;9.240;2022-11-20T13:53:53;3.00;;;1.10;;
11819;SDS011;5967;48.944;9.240;2022-11-20T14:02:14;2.80;;;1.00;;
11819;SDS011;5967;48.944;9.240;2022-11-20T14:04:45;2.67;;;1.10;;
11819;SDS011;5967;48.944;9.240;2022-11-20T14:07:13;3.50;;;1.20;;
11819;SDS011;5967;48.944;9.240;2022-11-20T14:09:48;3.07;;;1.07;;
11819;SDS011;5967;48.944;9.240;2022-11-20T14:12:17;3.67;;;1.30;;
11819;SDS011;5967;48.944;9.240;2022-11-20T14:14:48;3.30;;;1.37;;
11819;SDS011;5967;48.944;9.240;2022-11-20T14:17:20;1.90;;;1.10;;
11819;SDS011;5967;48.944;9.240;2022-11-20T14:19:58;2.27;;;1.53;;
11819;SDS011;5967;48.944;9.240;2022-11-20T14:22:27;2.40;;;1.10;;
11819;SDS011;5967;48.944;9.240;2022-11-20T14:27:29;1.97;;;1.00;;
11819;SDS011;5967;48.944;9.240;2022-11-20T14:30:00;1.70;;;1.03;;
11819;SDS011;5967;48.944;9.240;2022-11-20T14:32:27;2.23;;;1.10;;
11819;SDS011;5967;48.944;9.240;2022-11-20T14:34:55;1.70;;;1.10;;
11819;SDS011;5967;48.944;9.240;2022-11-20T14:37:27;2.03;;;1.00;;
11819;SDS011;5967;48.944;9.240;2022-11-20T14:39:57;3.40;;;1.17;;
11819;SDS011;5967;48.944;9.240;2022-11-20T14:42:27;2.37;;;1.00;;
11819;SDS011;5967;48.944;9.240;2022-11-20T14:44:57;2.43;;;1.00;;
11819;SDS011;5967;48.944;9.240;2022-11-20T14:47:28;1.57;;;1.07;;
11819;SDS011;5967;48.944;9.240;2022-11-20T14:49:55;3.00;;;1.20;;
11819;SDS011;5967;48.944;9.240;2022-11-20T14:52:26;2.03;;;1.00;;
11819;SDS011;5967;48.944;9.240;2022-11-20T14:54:56;3.80;;;1.10;;
11819;SDS011;5967;48.944;9.240;2022-11-20T14:57:26;3.63;;;1.03;;
11819;SDS011;5967;48.944;9.240;2022-11-20T15:00:04;2.17;;;1.00;;
11819;SDS011;5967;48.944;9.240;2022-11-20T15:02:32;2.17;;;1.00;;
11819;SDS011;5967;48.944;9.240;2022-11-20T15:04:58;2.97;;;1.30;;
11819;SDS011;5967;48.944;9.240;2022-11-20T15:07:33;2.33;;;1.07;;
11819;SDS011;5967;48.944;9.240;2022-11-20T15:10:31;3.30;;;1.43;;
11819;SDS011;5967;48.944;9.240;2022-11-20T15:13:03;1.80;;;1.03;;
11819;SDS011;5967;48.944;9.240;2022-11-20T15:15:45;3.23;;;1.47;;
11819;SDS011;5967;48.944;9.240;2022-11-20T15:18:18;2.27;;;1.30;;
11819;SDS011;5967;48.944;9.240;2022-11-20T15:20:46;1.77;;;1.30;;
11819;SDS011;5967;48.944;9.240;2022-11-20T15:23:14;4.33;;;1.60;;
11819;SDS011;5967;48.944;9.240;2022-11-20T15:25:43;1.87;;;1.30;;
11819;SDS011;5967;48.944;9.240;2022-11-20T15:28:19;3.17;;;1.20;;
11819;SDS011;5967;48.944;9.240;2022-11-20T15:30:48;1.60;;;1.10;;
11819;SDS011;5967;48.944;9.240;2022-11-20T15:33:15;3.10;;;1.17;;
11819;SDS011;5967;48.944;9.240;2022-11-20T15:35:41;2.10;;;1.10;;
11819;SDS011;5967;48.944;9.240;2022-11-20T15:38:08;2.60;;;1.40;;
11819;SDS011;5967;48.944;9.240;2022-11-20T15:40:34;2.50;;;1.43;;
11819;SDS011;5967;48.944;9.240;2022-11-20T15:42:59;2.77;;;1.93;;
11819;SDS011;5967;48.944;9.240;2022-11-20T15:45:33;4.77;;;2.43;;
11819;SDS011;5967;48.944;9.240;2022-11-20T15:48:03;2.67;;;1.70;;
11819;SDS011;5967;48.944;9.240;2022-11-20T15:50:34;2.67;;;1.90;;
11819;SDS011;5967;48.944;9.240;2022-11-20T15:53:03;3.23;;;1.67;;
11819;SDS011;5967;48.944;9.240;2022-11-20T15:55:29;3.17;;;2.00;;
11819;SDS011;5967;48.944;9.240;2022-11-20T15:57:56;3.97;;;1.80;;
11819;SDS011;5967;48.944;9.240;2022-11-20T16:00:22;3.17;;;1.60;;
11819;SDS011;5967;48.944;9.240;2022-11-20T16:02:47;3.03;;;1.77;;
11819;SDS011;5967;48.944;9.240;2022-11-20T16:05:13;2.17;;;1.60;;
11819;SDS011;5967;48.944;9.240;2022-11-20T16:07:40;3.63;;;1.57;;
11819;SDS011;5967;48.944;9.240;2022-11-20T16:10:05;2.73;;;1.63;;
11819;SDS011;5967;48.944;9.240;2022-11-20T16:12:31;3.33;;;2.00;;
11819;SDS011;5967;48.944;9.240;2022-11-20T16:15:15;3.80;;;2.00;;
11819;SDS011;5967;48.944;9.240;2022-11-20T16:17:59;3.30;;;2.10;;
11819;SDS011;5967;48.944;9.240;2022-11-20T16:20:25;2.70;;;1.90;;
11819;SDS011;5967;48.944;9.240;2022-11-20T16:22:51;2.93;;;1.73;;
11819;SDS011;5967;48.944;9.240;2022-11-20T16:25:16;4.90;;;2.10;;
11819;SDS011;5967;48.944;9.240;2022-11-20T16:27:42;3.37;;;2.07;;
11819;SDS011;5967;48.944;9.240;2022-11-20T16:30:07;3.67;;;1.77;;
11819;SDS011;5967;48.944;9.240;2022-11-20T16:32:34;4.23;;;2.20;;
11819;SDS011;5967;48.944;9.240;2022-11-20T16:34:59;3.17;;;1.93;;
11819;SDS011;5967;48.944;9.240;2022-11-20T16:37:25;2.47;;;1.70;;
11819;SDS011;5967;48.944;9.240;2022-11-20T16:39:50;2.73;;;1.77;;
11819;SDS011;5967;48.944;9.240;2022-11-20T16:42:16;4.07;;;2.03;;
11819;SDS011;5967;48.944;9.240;2022-11-20T16:44:41;3.60;;;2.20;;
11819;SDS011;5967;48.944;9.240;2022-11-20T16:47:11;2.93;;;2.10;;
11819;SDS011;5967;48.944;9.240;2022-11-20T16:49:37;2.87;;;2.10;;